createdAt,value
2018-09-11T00:00:35.660Z,13.70
2018-09-11T00:03:10.450Z,13.80
2018-09-11T00:05:45.135Z,13.70
2018-09-11T00:08:19.839Z,13.80
2018-09-11T00:10:54.524Z,13.80
2018-09-11T00:13:29.320Z,13.80
2018-09-11T00:16:04.146Z,13.80
2018-09-11T00:18:38.970Z,13.60
2018-09-11T00:21:13.694Z,13.70
2018-09-11T00:23:48.549Z,13.80
2018-09-11T00:26:23.286Z,13.80
2018-09-11T00:28:58.007Z,13.80
2018-09-11T00:31:32.838Z,13.80
2018-09-11T00:34:07.681Z,13.70
2018-09-11T00:36:42.220Z,13.60
2018-09-11T00:39:16.992Z,13.50
2018-09-11T00:41:51.659Z,13.50
2018-09-11T00:44:26.458Z,13.50
2018-09-11T00:47:01.627Z,13.50
2018-09-11T00:49:36.506Z,13.60
2018-09-11T00:52:11.306Z,13.60
2018-09-11T00:54:47.360Z,13.60
2018-09-11T00:57:22.272Z,13.60
2018-09-11T00:59:57.108Z,13.60
2018-09-11T01:02:32.813Z,13.50
2018-09-11T01:05:07.752Z,13.50
2018-09-11T01:07:42.652Z,13.50
2018-09-11T01:10:17.474Z,13.50
2018-09-11T01:12:52.287Z,13.50
2018-09-11T01:15:27.019Z,13.50
2018-09-11T01:18:01.791Z,13.40
2018-09-11T01:20:36.644Z,13.40
2018-09-11T01:23:11.349Z,13.30
2018-09-11T01:25:46.137Z,13.30
2018-09-11T01:28:20.855Z,13.20
2018-09-11T01:30:55.823Z,13.10
2018-09-11T01:33:30.583Z,13.10
2018-09-11T01:36:06.120Z,13.10
2018-09-11T01:38:40.880Z,13.20
2018-09-11T01:41:15.542Z,13.10
2018-09-11T01:43:53.534Z,13.00
2018-09-11T01:46:28.594Z,12.80
2018-09-11T01:49:03.777Z,12.80
2018-09-11T01:51:38.535Z,12.90
2018-09-11T01:54:13.092Z,13.00
2018-09-11T01:56:47.732Z,13.10
2018-09-11T01:59:22.635Z,13.10
2018-09-11T02:01:57.324Z,13.00
2018-09-11T02:04:31.863Z,13.00
2018-09-11T02:07:06.500Z,13.00
2018-09-11T02:09:41.309Z,13.00
2018-09-11T02:12:15.986Z,13.00
2018-09-11T02:14:50.794Z,13.00
2018-09-11T02:17:25.435Z,13.00
2018-09-11T02:20:00.132Z,13.00
2018-09-11T02:22:35.051Z,13.00
2018-09-11T02:25:09.926Z,13.00
2018-09-11T02:27:44.705Z,13.10
2018-09-11T02:30:19.681Z,13.10
2018-09-11T02:32:54.673Z,13.20
2018-09-11T02:35:30.099Z,13.30
2018-09-11T02:38:04.981Z,13.30
2018-09-11T02:40:39.694Z,13.20
2018-09-11T02:43:14.390Z,13.10
2018-09-11T02:45:49.346Z,13.10
2018-09-11T02:48:23.937Z,13.10
2018-09-11T02:50:58.608Z,13.10
2018-09-11T02:53:34.699Z,13.10
2018-09-11T02:56:09.632Z,13.10
2018-09-11T02:58:44.468Z,13.10
2018-09-11T03:01:19.275Z,12.90
2018-09-11T03:03:54.011Z,12.90
2018-09-11T03:06:28.704Z,13.00
2018-09-11T03:09:03.506Z,13.00
2018-09-11T03:11:38.203Z,13.00
2018-09-11T03:14:13.708Z,13.00
2018-09-11T03:16:48.559Z,12.90
2018-09-11T03:19:23.341Z,12.90
2018-09-11T03:21:58.138Z,12.90
2018-09-11T03:24:32.841Z,12.90
2018-09-11T03:27:07.662Z,12.80
2018-09-11T03:29:42.473Z,12.70
2018-09-11T03:32:18.140Z,12.50
2018-09-11T03:34:53.050Z,12.50
2018-09-11T03:37:27.879Z,12.60
2018-09-11T03:40:02.627Z,12.50
2018-09-11T03:42:37.385Z,12.40
2018-09-11T03:45:12.026Z,12.50
2018-09-11T03:47:46.746Z,12.40
2018-09-11T03:50:22.631Z,12.30
2018-09-11T03:52:57.382Z,12.30
2018-09-11T03:55:32.009Z,12.20
2018-09-11T03:58:07.339Z,12.10
2018-09-11T04:00:42.020Z,12.20
2018-09-11T04:03:16.602Z,12.10
2018-09-11T04:05:51.481Z,12.00
2018-09-11T04:08:26.084Z,12.00
2018-09-11T04:11:00.893Z,12.00
2018-09-11T04:13:35.777Z,12.00
2018-09-11T04:16:10.387Z,12.00
2018-09-11T04:18:44.901Z,11.90
2018-09-11T04:21:19.778Z,12.00
2018-09-11T04:23:54.449Z,11.90
2018-09-11T04:26:29.185Z,12.00
2018-09-11T04:29:03.985Z,11.90
2018-09-11T04:31:38.628Z,11.80
2018-09-11T04:34:13.414Z,11.90
2018-09-11T04:36:48.237Z,12.00
2018-09-11T04:39:22.947Z,11.90
2018-09-11T04:41:57.838Z,12.00
2018-09-11T04:44:32.534Z,11.90
2018-09-11T04:47:07.360Z,11.90
2018-09-11T04:49:42.112Z,11.90
2018-09-11T04:52:16.821Z,11.90
2018-09-11T04:54:51.628Z,11.90
2018-09-11T04:57:26.310Z,12.00
2018-09-11T05:00:01.020Z,12.00
2018-09-11T05:02:35.953Z,12.00
2018-09-11T05:05:10.578Z,12.10
2018-09-11T05:07:45.277Z,12.10
2018-09-11T05:10:19.945Z,12.20
2018-09-11T05:12:54.558Z,12.20
2018-09-11T05:15:29.312Z,12.20
2018-09-11T05:18:04.250Z,12.30
2018-09-11T05:20:38.988Z,12.40
2018-09-11T05:23:13.750Z,12.40
2018-09-11T05:25:48.674Z,12.40
2018-09-11T05:28:23.344Z,12.40
2018-09-11T05:30:58.133Z,12.40
2018-09-11T05:33:32.919Z,12.40
2018-09-11T05:36:07.615Z,12.40
2018-09-11T05:38:42.620Z,12.40
2018-09-11T05:41:17.583Z,12.40
2018-09-11T05:43:52.475Z,12.50
2018-09-11T05:46:27.305Z,12.60
2018-09-11T05:49:02.284Z,12.30
2018-09-11T05:51:37.016Z,12.30
2018-09-11T05:54:13.069Z,12.20
2018-09-11T05:56:47.994Z,12.20
2018-09-11T05:59:22.796Z,12.30
2018-09-11T06:01:57.494Z,12.00
2018-09-11T06:04:32.269Z,12.30
2018-09-11T06:07:07.031Z,12.40
2018-09-11T06:09:41.669Z,12.50
2018-09-11T06:12:16.338Z,12.60
2018-09-11T06:14:51.017Z,12.50
2018-09-11T06:17:25.847Z,12.60
2018-09-11T06:20:00.484Z,12.80
2018-09-11T06:22:35.353Z,13.00
2018-09-11T06:25:10.343Z,13.00
2018-09-11T06:27:45.173Z,13.10
2018-09-11T06:30:19.902Z,13.20
2018-09-11T06:32:54.527Z,13.40
2018-09-11T06:35:29.235Z,13.50
2018-09-11T06:38:04.023Z,13.50
2018-09-11T06:40:38.806Z,13.60
2018-09-11T06:43:13.653Z,13.90
2018-09-11T06:45:48.665Z,14.10
2018-09-11T06:48:23.409Z,14.30
2018-09-11T06:50:58.358Z,14.50
2018-09-11T06:53:33.182Z,14.60
2018-09-11T06:56:08.073Z,14.80
2018-09-11T06:58:42.862Z,15.00
2018-09-11T07:01:17.454Z,15.10
2018-09-11T07:03:52.430Z,15.10
2018-09-11T07:06:27.298Z,15.10
2018-09-11T07:09:01.872Z,15.30
2018-09-11T07:11:36.787Z,15.40
2018-09-11T07:14:11.494Z,15.60
2018-09-11T07:16:46.202Z,15.70
2018-09-11T07:19:20.938Z,16.00
2018-09-11T07:21:55.564Z,16.20
2018-09-11T07:24:30.308Z,16.40
2018-09-11T07:27:05.116Z,16.50
2018-09-11T07:29:39.758Z,16.60
2018-09-11T07:32:14.576Z,16.90
2018-09-11T07:34:49.216Z,16.90
2018-09-11T07:37:24.034Z,16.90
2018-09-11T07:39:58.734Z,17.10
2018-09-11T07:42:33.482Z,17.20
2018-09-11T07:45:08.118Z,17.40
2018-09-11T07:47:42.809Z,17.40
2018-09-11T07:50:17.531Z,17.60
2018-09-11T07:52:52.310Z,17.80
2018-09-11T07:55:26.950Z,17.90
2018-09-11T07:58:01.600Z,18.00
2018-09-11T08:00:36.111Z,18.20
2018-09-11T08:03:10.672Z,18.40
2018-09-11T08:05:45.428Z,18.50
2018-09-11T08:08:20.243Z,18.60
2018-09-11T08:10:54.861Z,18.60
2018-09-11T08:13:29.477Z,18.70
2018-09-11T08:16:04.126Z,19.00
2018-09-11T08:18:39.865Z,19.30
2018-09-11T08:21:14.659Z,19.50
2018-09-11T08:23:49.339Z,19.60
2018-09-11T08:26:23.990Z,19.80
2018-09-11T08:28:58.798Z,20.00
2018-09-11T08:31:33.572Z,20.00
2018-09-11T08:34:08.238Z,20.00
2018-09-11T08:36:42.994Z,20.20
2018-09-11T08:39:17.605Z,20.40
2018-09-11T08:41:52.271Z,20.60
2018-09-11T08:44:26.865Z,20.80
2018-09-11T08:47:01.639Z,20.90
2018-09-11T08:49:36.192Z,21.10
2018-09-11T08:52:10.807Z,21.20
2018-09-11T08:54:45.438Z,21.40
2018-09-11T08:57:20.215Z,21.50
2018-09-11T08:59:54.754Z,21.70
2018-09-11T09:02:29.594Z,21.80
2018-09-11T09:05:04.461Z,21.60
2018-09-11T09:07:38.975Z,21.60
2018-09-11T09:10:13.668Z,21.70
2018-09-11T09:12:48.377Z,21.90
2018-09-11T09:15:23.187Z,22.00
2018-09-11T09:17:58.133Z,21.90
2018-09-11T09:20:32.862Z,22.00
2018-09-11T09:23:07.645Z,22.20
2018-09-11T09:25:42.334Z,22.40
2018-09-11T09:28:17.743Z,22.50
2018-09-11T09:30:52.611Z,22.70
2018-09-11T09:33:27.317Z,22.70
2018-09-11T09:36:02.026Z,22.50
2018-09-11T09:38:36.701Z,22.70
2018-09-11T09:41:11.359Z,22.80
2018-09-11T09:43:46.019Z,22.70
2018-09-11T09:46:20.626Z,22.60
2018-09-11T09:48:55.398Z,22.60
2018-09-11T09:51:30.379Z,22.80
2018-09-11T09:54:05.016Z,22.70
2018-09-11T09:56:39.713Z,22.80
2018-09-11T09:59:14.546Z,22.70
2018-09-11T10:01:54.792Z,22.90
2018-09-11T10:04:29.349Z,22.90
2018-09-11T10:07:04.153Z,22.90
2018-09-11T10:09:38.791Z,23.10
2018-09-11T10:12:13.497Z,22.70
2018-09-11T10:14:48.148Z,22.60
2018-09-11T10:17:22.721Z,22.90
2018-09-11T10:19:57.281Z,23.10
2018-09-11T10:22:31.772Z,23.20
2018-09-11T10:25:06.259Z,23.50
2018-09-11T10:27:40.841Z,23.70
2018-09-11T10:30:15.481Z,23.80
2018-09-11T10:32:50.027Z,23.80
2018-09-11T10:35:24.662Z,23.60
2018-09-11T10:37:59.325Z,23.70
2018-09-11T10:40:33.780Z,23.90
2018-09-11T10:43:08.363Z,24.20
2018-09-11T10:45:42.890Z,24.20
2018-09-11T10:48:17.381Z,24.10
2018-09-11T10:50:52.080Z,23.90
2018-09-11T10:53:26.510Z,24.20
2018-09-11T10:56:00.971Z,24.20
2018-09-11T10:58:35.335Z,24.40
2018-09-11T11:01:09.893Z,24.60
2018-09-11T11:03:44.454Z,24.70
2018-09-11T11:06:18.883Z,24.70
2018-09-11T11:08:53.499Z,24.80
2018-09-11T11:11:28.139Z,25.00
2018-09-11T11:14:02.618Z,25.10
2018-09-11T11:16:37.179Z,25.00
2018-09-11T11:19:11.705Z,25.00
2018-09-11T11:21:46.213Z,24.70
2018-09-11T11:24:20.745Z,24.60
2018-09-11T11:26:55.491Z,24.80
2018-09-11T11:29:30.063Z,25.00
2018-09-11T11:32:04.651Z,25.20
2018-09-11T11:34:39.284Z,25.40
2018-09-11T11:37:13.914Z,25.40
2018-09-11T11:39:48.235Z,25.10
2018-09-11T11:42:22.818Z,25.10
2018-09-11T11:44:57.361Z,25.40
2018-09-11T11:47:31.967Z,25.30
2018-09-11T11:50:06.895Z,25.30
2018-09-11T11:52:41.302Z,25.40
2018-09-11T11:55:15.931Z,25.50
2018-09-11T11:57:50.374Z,25.50
2018-09-11T12:00:25.105Z,25.80
2018-09-11T12:02:59.604Z,26.10
2018-09-11T12:05:34.034Z,26.00
2018-09-11T12:08:08.572Z,26.10
2018-09-11T12:10:43.358Z,26.20
2018-09-11T12:13:18.052Z,25.90
2018-09-11T12:15:52.708Z,26.00
2018-09-11T12:18:27.276Z,26.20
2018-09-11T12:21:01.881Z,26.20
2018-09-11T12:23:36.396Z,26.20
2018-09-11T12:26:10.917Z,26.00
2018-09-11T12:28:45.341Z,26.00
2018-09-11T12:31:19.933Z,26.00
2018-09-11T12:33:54.476Z,26.10
2018-09-11T12:36:29.034Z,25.80
2018-09-11T12:39:04.417Z,25.80
2018-09-11T12:41:39.015Z,26.10
2018-09-11T12:44:13.619Z,26.30
2018-09-11T12:46:48.438Z,26.30
2018-09-11T12:49:22.721Z,26.40
2018-09-11T12:51:57.266Z,26.20
2018-09-11T12:54:31.926Z,26.40
2018-09-11T12:57:06.329Z,26.40
2018-09-11T12:59:40.847Z,26.20
2018-09-11T13:02:15.360Z,26.10
2018-09-11T13:04:49.914Z,26.10
2018-09-11T13:07:24.447Z,26.30
2018-09-11T13:09:58.928Z,26.30
2018-09-11T13:12:33.444Z,26.50
2018-09-11T13:15:07.921Z,26.70
2018-09-11T13:17:42.595Z,26.90
2018-09-11T13:20:17.089Z,26.90
2018-09-11T13:22:51.548Z,26.80
2018-09-11T13:25:26.042Z,26.80
2018-09-11T13:28:00.424Z,26.70
2018-09-11T13:30:34.804Z,26.70
2018-09-11T13:33:09.207Z,26.70
2018-09-11T13:35:43.611Z,26.80
2018-09-11T13:38:18.151Z,26.90
2018-09-11T13:40:52.680Z,27.00
2018-09-11T13:43:27.277Z,27.00
2018-09-11T13:46:02.004Z,27.00
2018-09-11T13:48:36.499Z,27.10
2018-09-11T13:51:11.169Z,27.10
2018-09-11T13:53:45.612Z,27.20
2018-09-11T13:56:20.226Z,26.90
2018-09-11T13:58:54.810Z,26.80
2018-09-11T14:01:29.281Z,26.80
2018-09-11T14:04:03.865Z,26.90
2018-09-11T14:06:38.340Z,26.90
2018-09-11T14:09:14.764Z,27.00
2018-09-11T14:11:49.450Z,27.00
2018-09-11T14:14:23.852Z,26.90
2018-09-11T14:16:58.278Z,27.00
2018-09-11T14:19:32.704Z,27.00
2018-09-11T14:22:07.375Z,27.00
2018-09-11T14:24:41.908Z,26.90
2018-09-11T14:27:16.382Z,26.90
2018-09-11T14:29:51.059Z,27.10
2018-09-11T14:32:25.582Z,27.20
2018-09-11T14:35:00.142Z,26.90
2018-09-11T14:37:34.721Z,27.00
2018-09-11T14:40:09.386Z,27.00
2018-09-11T14:42:43.772Z,27.00
2018-09-11T14:45:18.340Z,27.20
2018-09-11T14:47:52.985Z,27.20
2018-09-11T14:50:27.356Z,27.10
2018-09-11T14:53:01.744Z,27.00
2018-09-11T14:55:36.282Z,27.00
2018-09-11T14:58:10.924Z,27.00
2018-09-11T15:00:45.403Z,26.60
2018-09-11T15:03:19.969Z,26.50
2018-09-11T15:05:54.438Z,26.40
2018-09-11T15:08:29.124Z,26.60
2018-09-11T15:11:03.742Z,26.50
2018-09-11T15:13:38.278Z,26.70
2018-09-11T15:16:12.703Z,26.80
2018-09-11T15:18:47.156Z,26.90
2018-09-11T15:21:21.532Z,26.80
2018-09-11T15:23:56.140Z,26.90
2018-09-11T15:26:30.560Z,27.00
2018-09-11T15:29:05.438Z,27.10
2018-09-11T15:31:40.021Z,27.10
2018-09-11T15:34:14.560Z,27.20
2018-09-11T15:36:49.057Z,27.30
2018-09-11T15:39:23.708Z,27.30
2018-09-11T15:41:58.468Z,27.10
2018-09-11T15:44:33.031Z,27.10
2018-09-11T15:47:07.607Z,27.20
2018-09-11T15:49:42.189Z,27.20
2018-09-11T15:52:16.591Z,27.00
2018-09-11T15:54:51.183Z,27.00
2018-09-11T15:57:25.562Z,27.10
2018-09-11T16:00:00.130Z,27.10
2018-09-11T16:02:34.730Z,27.00
2018-09-11T16:05:09.210Z,27.00
2018-09-11T16:07:43.719Z,26.80
2018-09-11T16:10:18.287Z,26.90
2018-09-11T16:12:52.725Z,27.00
2018-09-11T16:15:27.371Z,27.10
2018-09-11T16:18:02.985Z,27.00
2018-09-11T16:20:37.803Z,27.10
2018-09-11T16:23:12.435Z,27.00
2018-09-11T16:25:47.208Z,27.00
2018-09-11T16:28:22.300Z,27.10
2018-09-11T16:31:00.071Z,27.20
2018-09-11T16:33:34.864Z,27.30
2018-09-11T16:36:09.790Z,27.30
2018-09-11T16:38:44.267Z,27.20
2018-09-11T16:41:18.962Z,27.20
2018-09-11T16:43:53.434Z,27.10
2018-09-11T16:46:27.995Z,27.00
2018-09-11T16:49:02.490Z,26.80
2018-09-11T16:51:37.853Z,26.80
2018-09-11T16:54:14.677Z,26.80
2018-09-11T16:56:51.652Z,26.70
2018-09-11T16:59:27.493Z,26.70
2018-09-11T17:02:02.302Z,26.40
2018-09-11T17:04:37.242Z,26.30
2018-09-11T17:07:12.286Z,25.40
2018-09-11T17:09:47.176Z,25.40
2018-09-11T17:12:21.960Z,25.30
2018-09-11T17:14:56.761Z,25.30
2018-09-11T17:17:31.245Z,25.20
2018-09-11T17:20:06.266Z,25.10
2018-09-11T17:22:41.018Z,24.90
2018-09-11T17:25:15.344Z,24.50
2018-09-11T17:27:50.298Z,24.30
2018-09-11T17:30:25.293Z,24.30
2018-09-11T17:32:59.862Z,24.20
2018-09-11T17:35:34.444Z,23.40
2018-09-11T17:38:09.099Z,23.40
2018-09-11T17:40:43.746Z,23.50
2018-09-11T17:43:18.240Z,23.50
2018-09-11T17:45:52.814Z,23.10
2018-09-11T17:48:27.502Z,22.90
2018-09-11T17:51:01.991Z,22.80
2018-09-11T17:53:36.332Z,22.80
2018-09-11T17:56:10.687Z,22.80
2018-09-11T17:58:45.102Z,22.80
2018-09-11T18:01:19.558Z,22.60
2018-09-11T18:03:53.963Z,22.30
2018-09-11T18:06:28.789Z,22.10
2018-09-11T18:09:03.527Z,21.80
2018-09-11T18:11:37.931Z,21.50
2018-09-11T18:14:12.335Z,21.60
2018-09-11T18:16:46.781Z,21.80
2018-09-11T18:19:21.044Z,21.20
2018-09-11T18:21:55.449Z,20.40
2018-09-11T18:24:29.857Z,20.30
2018-09-11T18:27:04.245Z,20.30
2018-09-11T18:29:38.760Z,20.50
2018-09-11T18:32:13.251Z,20.50
2018-09-11T18:34:47.628Z,20.40
2018-09-11T18:37:22.162Z,20.30
2018-09-11T18:39:56.440Z,20.10
2018-09-11T18:42:30.882Z,20.10
2018-09-11T18:45:05.659Z,20.10
2018-09-11T18:47:40.315Z,20.20
2018-09-11T18:50:14.837Z,20.20
2018-09-11T18:52:49.584Z,20.30
2018-09-11T18:55:23.991Z,20.30
2018-09-11T18:57:58.798Z,20.20
2018-09-11T19:00:33.109Z,19.90
2018-09-11T19:03:07.610Z,20.00
2018-09-11T19:05:42.179Z,20.10
2018-09-11T19:08:16.705Z,20.10
2018-09-11T19:10:52.409Z,20.00
2018-09-11T19:13:27.478Z,20.10
2018-09-11T19:16:02.138Z,20.10
2018-09-11T19:18:36.644Z,20.00
2018-09-11T19:21:11.082Z,19.90
2018-09-11T19:23:45.595Z,19.70
2018-09-11T19:26:20.019Z,19.70
2018-09-11T19:28:54.608Z,19.70
2018-09-11T19:31:28.974Z,19.70
2018-09-11T19:34:03.529Z,19.60
2018-09-11T19:36:37.879Z,19.50
2018-09-11T19:39:12.379Z,19.30
2018-09-11T19:41:46.765Z,19.30
2018-09-11T19:44:21.115Z,19.20
2018-09-11T19:46:55.523Z,19.10
2018-09-11T19:49:29.963Z,19.00
2018-09-11T19:52:04.421Z,18.90
2018-09-11T19:54:38.903Z,18.90
2018-09-11T19:57:13.427Z,19.00
2018-09-11T19:59:47.785Z,19.00
2018-09-11T20:02:22.184Z,18.90
2018-09-11T20:04:56.571Z,18.90
2018-09-11T20:07:31.040Z,18.60
2018-09-11T20:10:05.451Z,18.50
2018-09-11T20:12:39.855Z,18.50
2018-09-11T20:15:14.367Z,18.50
2018-09-11T20:17:48.822Z,18.40
2018-09-11T20:20:23.328Z,18.40
2018-09-11T20:22:57.775Z,18.30
2018-09-11T20:25:32.116Z,18.30
2018-09-11T20:28:06.695Z,18.10
2018-09-11T20:30:41.205Z,18.10
2018-09-11T20:33:15.601Z,18.20
2018-09-11T20:35:49.967Z,18.20
2018-09-11T20:38:25.676Z,18.20
2018-09-11T20:41:04.418Z,18.00
2018-09-11T20:43:39.480Z,17.90
2018-09-11T20:46:14.178Z,18.00
2018-09-11T20:48:48.608Z,17.80
2018-09-11T20:51:23.058Z,17.90
2018-09-11T20:53:57.407Z,17.60
2018-09-11T20:56:31.844Z,17.70
2018-09-11T20:59:06.378Z,17.70
2018-09-11T21:01:40.903Z,17.60
2018-09-11T21:04:15.407Z,17.30
2018-09-11T21:06:49.908Z,17.30
2018-09-11T21:09:24.377Z,17.40
2018-09-11T21:11:58.791Z,17.30
2018-09-11T21:14:33.183Z,17.30
2018-09-11T21:17:07.695Z,17.30
2018-09-11T21:19:42.048Z,17.10
2018-09-11T21:22:16.387Z,17.10
2018-09-11T21:24:50.877Z,17.00
2018-09-11T21:27:25.532Z,16.90
2018-09-11T21:30:00.417Z,17.00
2018-09-11T21:32:34.989Z,17.00
2018-09-11T21:35:09.587Z,16.50
2018-09-11T21:37:44.141Z,16.30
2018-09-11T21:40:18.763Z,16.30
2018-09-11T21:42:53.157Z,16.40
2018-09-11T21:45:27.533Z,16.50
2018-09-11T21:48:02.190Z,16.50
2018-09-11T21:50:36.708Z,16.30
2018-09-11T21:53:11.172Z,16.40
2018-09-11T21:55:45.556Z,16.30
2018-09-11T21:58:20.019Z,16.40
2018-09-11T22:00:59.950Z,16.30
2018-09-11T22:03:34.467Z,16.30
2018-09-11T22:06:08.759Z,16.30
2018-09-11T22:08:43.154Z,16.30
2018-09-11T22:11:17.588Z,16.10
2018-09-11T22:13:52.072Z,16.00
2018-09-11T22:16:26.383Z,16.10
2018-09-11T22:19:00.883Z,16.00
2018-09-11T22:21:36.059Z,15.90
2018-09-11T22:24:10.454Z,16.00
2018-09-11T22:26:44.764Z,15.90
2018-09-11T22:29:19.188Z,15.90
2018-09-11T22:31:53.805Z,16.00
2018-09-11T22:34:28.133Z,15.90
2018-09-11T22:37:02.663Z,16.00
2018-09-11T22:39:37.166Z,15.80
2018-09-11T22:42:11.587Z,15.80
2018-09-11T22:44:46.064Z,15.70
2018-09-11T22:47:20.447Z,15.60
2018-09-11T22:49:54.847Z,15.80
2018-09-11T22:52:29.325Z,15.50
2018-09-11T22:55:03.954Z,15.30
2018-09-11T22:57:38.343Z,14.90
2018-09-11T23:00:12.735Z,14.80
2018-09-11T23:02:47.235Z,14.90
2018-09-11T23:05:21.673Z,14.90
2018-09-11T23:07:56.133Z,14.80
2018-09-11T23:10:30.514Z,15.00
2018-09-11T23:13:04.825Z,15.10
2018-09-11T23:15:39.316Z,15.20
2018-09-11T23:18:13.655Z,15.20
2018-09-11T23:20:48.007Z,15.00
2018-09-11T23:23:22.570Z,15.00
2018-09-11T23:25:57.048Z,14.90
2018-09-11T23:28:31.518Z,14.70
2018-09-11T23:31:06.056Z,14.80
2018-09-11T23:33:40.459Z,14.80
2018-09-11T23:36:15.042Z,14.70
2018-09-11T23:38:49.418Z,14.90
2018-09-11T23:41:23.916Z,14.90
2018-09-11T23:43:58.182Z,14.90
2018-09-11T23:46:32.554Z,15.00
2018-09-11T23:49:07.280Z,14.90
2018-09-11T23:51:41.726Z,14.70
2018-09-11T23:54:16.066Z,14.60
2018-09-11T23:56:50.442Z,14.60
2018-09-11T23:59:24.814Z,14.70
